createdAt,value
2024-02-13T00:01:19.307Z,44.50
2024-02-13T00:03:47.557Z,44.59
2024-02-13T00:06:15.428Z,44.52
2024-02-13T00:08:45.767Z,44.53
2024-02-13T00:11:15.273Z,44.61
2024-02-13T00:13:47.735Z,44.45
2024-02-13T00:16:19.210Z,44.48
2024-02-13T00:18:50.895Z,44.57
2024-02-13T00:21:18.810Z,44.54
2024-02-13T00:23:46.471Z,44.73
2024-02-13T00:26:14.426Z,44.88
2024-02-13T00:28:41.920Z,45.11
2024-02-13T00:31:10.018Z,45.16
2024-02-13T00:33:37.540Z,45.20
2024-02-13T00:36:05.174Z,45.34
2024-02-13T00:38:32.538Z,45.49
2024-02-13T00:41:00.000Z,45.27
2024-02-13T00:43:29.924Z,45.25
2024-02-13T00:45:58.476Z,45.15
2024-02-13T00:48:28.068Z,44.98
2024-02-13T00:50:56.488Z,44.94
2024-02-13T00:53:24.100Z,45.02
2024-02-13T00:55:52.765Z,44.75
2024-02-13T00:58:20.275Z,44.64
2024-02-13T01:00:47.708Z,44.59
2024-02-13T01:03:15.219Z,44.68
2024-02-13T01:05:42.926Z,44.61
2024-02-13T01:08:11.964Z,44.45
2024-02-13T01:10:39.506Z,44.30
2024-02-13T01:13:06.934Z,44.31
2024-02-13T01:15:34.461Z,44.12
2024-02-13T01:18:02.095Z,44.24
2024-02-13T01:20:29.710Z,44.31
2024-02-13T01:22:57.288Z,44.33
2024-02-13T01:25:24.745Z,44.39
2024-02-13T01:27:52.175Z,44.57
2024-02-13T01:30:20.113Z,44.49
2024-02-13T01:32:48.589Z,44.29
2024-02-13T01:35:17.617Z,44.03
2024-02-13T01:37:45.071Z,43.97
2024-02-13T01:40:12.788Z,43.57
2024-02-13T01:42:40.127Z,43.37
2024-02-13T01:45:08.311Z,43.35
2024-02-13T01:47:37.229Z,43.15
2024-02-13T01:50:07.683Z,43.14
2024-02-13T01:52:35.168Z,43.16
2024-02-13T01:55:03.940Z,42.87
2024-02-13T01:57:32.958Z,42.76
2024-02-13T02:00:00.771Z,42.76
2024-02-13T02:02:28.214Z,42.67
2024-02-13T02:04:55.653Z,42.68
2024-02-13T02:07:24.552Z,42.59
2024-02-13T02:09:52.266Z,42.53
2024-02-13T02:12:19.679Z,42.42
2024-02-13T02:14:47.152Z,42.38
2024-02-13T02:17:14.966Z,42.35
2024-02-13T02:19:42.481Z,42.26
2024-02-13T02:22:10.410Z,42.41
2024-02-13T02:24:37.860Z,42.39
2024-02-13T02:27:05.337Z,42.35
2024-02-13T02:29:34.039Z,42.36
2024-02-13T02:32:01.601Z,42.29
2024-02-13T02:34:29.981Z,42.16
2024-02-13T02:36:57.478Z,42.08
2024-02-13T02:39:25.246Z,41.94
2024-02-13T02:41:53.241Z,41.76
2024-02-13T02:44:21.199Z,41.77
2024-02-13T02:46:49.095Z,41.90
2024-02-13T02:49:18.356Z,41.80
2024-02-13T02:51:47.549Z,41.87
2024-02-13T02:54:15.120Z,42.09
2024-02-13T02:56:42.738Z,42.01
2024-02-13T02:59:10.329Z,42.01
2024-02-13T03:01:38.203Z,42.02
2024-02-13T03:04:10.367Z,42.00
2024-02-13T03:06:40.016Z,41.84
2024-02-13T03:09:08.405Z,41.66
2024-02-13T03:11:36.127Z,41.48
2024-02-13T03:14:05.201Z,41.25
2024-02-13T03:16:36.200Z,41.29
2024-02-13T03:19:04.483Z,41.53
2024-02-13T03:21:32.181Z,41.60
2024-02-13T03:24:00.840Z,41.60
2024-02-13T03:26:28.479Z,41.60
2024-02-13T03:28:57.267Z,41.60
2024-02-13T03:31:24.975Z,41.61
2024-02-13T03:33:52.635Z,41.62
2024-02-13T03:36:21.040Z,41.68
2024-02-13T03:38:54.425Z,41.85
2024-02-13T03:41:22.238Z,41.90
2024-02-13T03:43:50.781Z,41.91
2024-02-13T03:46:18.327Z,41.89
2024-02-13T03:48:46.146Z,41.93
2024-02-13T03:51:14.545Z,41.92
2024-02-13T03:53:42.249Z,42.09
2024-02-13T03:56:10.940Z,42.17
2024-02-13T04:01:18.579Z,44.61
2024-02-13T04:03:46.130Z,42.42
2024-02-13T04:06:13.772Z,42.13
2024-02-13T04:08:46.010Z,41.83
2024-02-13T04:11:14.319Z,41.71
2024-02-13T04:13:41.808Z,41.67
2024-02-13T04:16:09.544Z,41.81
2024-02-13T04:18:37.235Z,41.95
2024-02-13T04:21:05.512Z,42.08
2024-02-13T04:23:34.137Z,42.24
2024-02-13T04:26:01.749Z,42.36
2024-02-13T04:28:29.120Z,42.40
2024-02-13T04:30:56.583Z,42.59
2024-02-13T16:19:30.953Z,43.13
2024-02-13T16:21:59.326Z,40.99
2024-02-13T16:24:26.978Z,40.76
2024-02-13T16:27:38.580Z,40.70
2024-02-13T16:30:09.474Z,40.38
2024-02-13T16:32:40.697Z,40.33
2024-02-13T16:35:10.671Z,40.30
2024-02-13T16:37:41.865Z,40.43
2024-02-13T16:40:12.612Z,40.50
2024-02-13T16:42:40.232Z,40.42
2024-02-13T16:45:09.060Z,40.62
2024-02-13T16:47:39.134Z,40.57
2024-02-13T16:50:17.011Z,40.55
2024-02-13T16:52:44.917Z,40.56
2024-02-13T16:55:13.614Z,40.48
2024-02-13T16:57:45.719Z,40.39
2024-02-13T17:00:14.385Z,40.46
2024-02-13T17:02:42.466Z,40.44
2024-02-13T17:05:13.788Z,40.46
2024-02-13T17:07:42.142Z,40.49
2024-02-13T17:10:10.568Z,40.41
2024-02-13T17:12:39.614Z,40.40
2024-02-13T17:15:14.536Z,40.56
2024-02-13T17:17:43.204Z,40.71
2024-02-13T17:20:15.082Z,40.80
2024-02-13T17:22:42.959Z,40.87
2024-02-13T17:25:13.612Z,40.82
2024-02-13T17:27:42.800Z,40.79
2024-02-13T17:30:14.415Z,40.79
2024-02-13T17:32:48.172Z,40.98
2024-02-13T17:35:16.633Z,40.99
2024-02-13T17:37:44.407Z,41.28
2024-02-13T17:40:14.550Z,41.20
2024-02-13T17:42:42.543Z,41.24
2024-02-13T17:45:11.408Z,41.14
2024-02-13T17:47:39.338Z,41.20
2024-02-13T17:50:09.215Z,41.06
2024-02-13T17:52:37.682Z,41.34
2024-02-13T17:55:09.386Z,41.51
2024-02-13T17:57:39.922Z,41.50
2024-02-13T18:00:08.985Z,41.59
2024-02-13T18:02:43.200Z,41.59
2024-02-13T18:05:10.873Z,41.49
2024-02-13T18:07:38.705Z,41.55
2024-02-13T18:10:09.230Z,41.48
2024-02-13T18:13:02.815Z,41.57
2024-02-13T18:15:30.457Z,41.57
2024-02-13T18:17:58.765Z,41.60
2024-02-13T18:20:28.343Z,41.55
2024-02-13T18:23:28.384Z,41.45
2024-02-13T18:25:56.553Z,41.52
2024-02-13T18:28:24.206Z,41.43
2024-02-13T18:30:51.715Z,41.32
2024-02-13T18:33:19.503Z,41.30
2024-02-13T18:35:48.594Z,41.54
2024-02-13T18:38:16.591Z,41.53
2024-02-13T18:40:44.231Z,41.55
2024-02-13T18:43:11.886Z,41.48
2024-02-13T18:45:39.806Z,41.62
2024-02-13T18:48:08.472Z,41.59
2024-02-13T18:50:36.300Z,41.62
2024-02-13T18:53:04.807Z,41.56
2024-02-13T18:55:33.951Z,41.52
2024-02-13T18:58:01.472Z,41.59
2024-02-13T19:00:29.844Z,41.63
2024-02-13T19:02:57.532Z,41.62
2024-02-13T19:05:25.473Z,41.66
2024-02-13T19:07:53.279Z,41.63
2024-02-13T19:10:21.255Z,41.77
2024-02-13T19:12:48.920Z,41.75
2024-02-13T19:15:17.699Z,41.90
2024-02-13T19:17:45.645Z,41.83
2024-02-13T19:20:15.891Z,41.70
2024-02-13T19:22:43.486Z,41.79
2024-02-13T19:25:11.471Z,41.78
2024-02-13T19:27:40.265Z,41.84
2024-02-13T19:30:12.532Z,42.07
2024-02-13T19:32:40.205Z,41.94
2024-02-13T19:35:09.983Z,42.01
2024-02-13T19:37:38.263Z,41.99
2024-02-13T19:40:07.632Z,42.02
2024-02-13T19:42:36.682Z,41.79
2024-02-13T19:45:05.924Z,41.88
2024-02-13T19:47:34.704Z,41.84
2024-02-13T19:50:02.431Z,41.73
2024-02-13T19:52:31.005Z,41.73
2024-02-13T19:54:58.644Z,41.74
2024-02-13T19:57:28.903Z,41.80
2024-02-13T19:59:56.600Z,41.96
2024-02-13T20:02:25.952Z,42.12
2024-02-13T20:04:57.973Z,42.04
2024-02-13T20:07:26.008Z,42.08
2024-02-13T20:09:55.800Z,42.09
2024-02-13T20:12:25.600Z,41.93
2024-02-13T20:14:53.194Z,41.98
2024-02-13T20:17:20.872Z,41.94
2024-02-13T20:19:48.709Z,41.90
2024-02-13T20:22:16.467Z,41.94
2024-02-13T20:24:44.064Z,41.79
2024-02-13T20:27:11.652Z,41.69
2024-02-13T20:29:39.223Z,41.61
2024-02-13T20:32:07.326Z,41.65
2024-02-13T20:34:35.629Z,41.66
2024-02-13T20:37:05.022Z,41.88
2024-02-13T20:39:32.847Z,41.95
2024-02-13T20:42:03.593Z,41.98
2024-02-13T20:44:31.340Z,42.16
2024-02-13T20:46:58.978Z,42.29
2024-02-13T20:49:27.565Z,42.30
2024-02-13T20:51:55.299Z,42.28
2024-02-13T20:54:22.957Z,42.32
2024-02-13T20:56:51.787Z,42.41
2024-02-13T20:59:19.503Z,42.53
2024-02-13T21:01:49.231Z,42.53
2024-02-13T21:04:17.270Z,42.58
2024-02-13T21:06:46.008Z,42.61
2024-02-13T21:09:13.873Z,42.51
2024-02-13T21:11:42.301Z,42.43
2024-02-13T21:14:10.555Z,42.42
2024-02-13T21:16:38.280Z,42.52
2024-02-13T21:19:09.050Z,42.99
2024-02-13T21:21:55.482Z,43.09
2024-02-13T21:24:23.081Z,43.09
2024-02-13T21:26:50.823Z,43.05
2024-02-13T21:36:10.124Z,42.71
2024-02-13T21:38:39.275Z,42.84
2024-02-13T21:41:07.086Z,43.04
2024-02-13T21:43:34.968Z,43.06
2024-02-13T21:46:02.459Z,43.02
2024-02-13T21:48:30.325Z,43.06
2024-02-13T21:50:59.705Z,42.97
2024-02-13T21:53:27.496Z,43.11
2024-02-13T21:55:55.226Z,43.17
2024-02-13T21:58:23.274Z,43.21
2024-02-13T22:00:52.285Z,43.17
2024-02-13T22:03:19.808Z,43.06
2024-02-13T22:05:47.429Z,43.08
2024-02-13T22:08:15.517Z,43.16
2024-02-13T22:10:43.112Z,43.11
2024-02-13T22:13:10.601Z,42.92
2024-02-13T22:15:38.074Z,43.01
2024-02-13T22:18:06.189Z,42.92
2024-02-13T22:20:38.204Z,42.87
2024-02-13T22:23:08.004Z,42.73
2024-02-13T22:25:36.463Z,42.65
2024-02-13T22:28:06.725Z,42.53
2024-02-13T22:30:34.354Z,42.39
2024-02-13T22:33:04.312Z,42.33
2024-02-13T22:35:31.848Z,42.48
2024-02-13T22:37:59.421Z,42.41
2024-02-13T22:40:27.303Z,42.27
2024-02-13T22:42:54.786Z,42.24
2024-02-13T22:45:22.286Z,42.23
2024-02-13T22:48:00.227Z,42.24
2024-02-13T22:50:28.512Z,42.20
2024-02-13T22:53:00.039Z,42.31
2024-02-13T22:55:28.087Z,42.55
2024-02-13T22:57:55.694Z,42.48
2024-02-13T23:00:42.233Z,42.46
2024-02-13T23:03:10.115Z,42.41
2024-02-13T23:05:38.879Z,42.45
2024-02-13T23:08:09.141Z,42.38
2024-02-13T23:10:38.375Z,42.41
2024-02-13T23:13:06.244Z,42.50
2024-02-13T23:15:33.731Z,42.58
2024-02-13T23:18:02.607Z,42.72
2024-02-13T23:20:30.987Z,42.68
2024-02-13T23:23:00.020Z,42.71
2024-02-13T23:25:27.525Z,42.69
2024-02-13T23:27:55.514Z,42.68
2024-02-13T23:30:23.197Z,42.67
2024-02-13T23:32:50.723Z,42.65
2024-02-13T23:35:21.166Z,42.64
2024-02-13T23:37:48.714Z,42.59
2024-02-13T23:40:18.019Z,42.55
2024-02-13T23:42:48.871Z,42.60
2024-02-13T23:45:16.438Z,42.53
2024-02-13T23:47:44.278Z,42.62
2024-02-13T23:50:14.821Z,42.58
2024-02-13T23:52:42.552Z,42.60
2024-02-13T23:55:10.885Z,42.71
2024-02-13T23:57:41.400Z,42.76
